Portada
METAR-TAF:

METAR-TAF

Aeroports :

Muscle Shoals, Alabama, Estats Units d'Amèrica

latitud: 34-44-38N, longitud: 087-35-58W, altitud: 167 m

Observació

L'informe es va fer fa 43 minuts, a les 05:53 UTC
Vent calma
Temperatura 19°C
Humitat 88%
Pressió 1015 hPa
Visibilitat: 16.1 km
Cel clar

METAR: KMSL 130553Z AUTO 00000KT 10SM CLR 19/17 A2996 RMK AO2 SLP138 T01940172 10289 20194 403000150 58004

Hora: 01:36 (06:36 UTC)

Pronòstic

L'informe es va fer fa 1 hora i 0 minuts, a les 05:36 UTC
Pronòstic vàlid del 13 a les 06 UTC al 14 a les 06 UTC
Vent kt del Nord
Visibilitat: 10 km
Núvols disperses a una alçada de 25000 ft
Temporalment
l' 13 a les 10 UTC al 13 a les 12 UTC
Visibilitat: 8.0 km
boirina
A partir de les 13 a les 1400 UTC
Vent 4 kt del Est/Sud-Est
Visibilitat: 10 km
Núvols disperses a una alçada de 25000 ft

TAF: KMSL 130536Z 1306/1406 00000KT P6SM SCT250 TEMPO 1310/1312 5SM BR FM131400 12004KT P6SM SCT250

Observacions i pronòstics meteorològics de més de 4000 aeroports (METAR i TAF).

Les estacions disponibles són els punts grocs i vermells al mapa.

Posi el ratolí al punt desitjat per veure el nom de l'estació.

Feu clic per veure les observacions i els pronòstics meteorològics.

Per canviar el mapa: feu clic els botons verds amb una creu de color negre per apropar; al botó verd amb un guió per allunyar la imatge; o en les fletxes verdes per a mapes adjacents.


METAR-TAF: